createdAt,value
2022-08-05T00:01:36.102Z,20.70
2022-08-05T00:04:16.596Z,20.70
2022-08-05T00:06:45.152Z,20.70
2022-08-05T00:09:16.045Z,20.70
2022-08-05T00:11:49.190Z,20.70
2022-08-05T00:14:27.809Z,20.70
2022-08-05T00:16:58.853Z,20.70
2022-08-05T00:19:33.726Z,20.60
2022-08-05T00:22:07.786Z,20.60
2022-08-05T00:24:38.777Z,20.70
2022-08-05T00:27:10.547Z,20.60
2022-08-05T00:29:41.420Z,20.60
2022-08-05T00:32:15.394Z,20.60
2022-08-05T00:35:04.160Z,20.60
2022-08-05T00:37:51.115Z,20.60
2022-08-05T00:40:27.506Z,20.60
2022-08-05T00:43:00.281Z,20.60
2022-08-05T00:45:38.034Z,20.60
2022-08-05T00:48:31.643Z,20.60
2022-08-05T00:50:58.842Z,20.50
2022-08-05T00:54:01.375Z,20.50
2022-08-05T00:56:33.255Z,20.50
2022-08-05T00:59:03.333Z,20.50
2022-08-05T01:01:48.130Z,20.50
2022-08-05T01:04:19.906Z,20.50
2022-08-05T01:06:53.555Z,20.50
2022-08-05T01:09:22.696Z,20.50
2022-08-05T01:11:53.077Z,20.50
2022-08-05T01:14:28.101Z,20.50
2022-08-05T01:16:55.410Z,20.50
2022-08-05T01:19:46.297Z,20.50
2022-08-05T01:22:24.518Z,20.40
2022-08-05T01:25:39.650Z,20.40
2022-08-05T01:28:19.121Z,20.40
2022-08-05T01:31:12.752Z,20.50
2022-08-05T01:33:48.964Z,20.50
2022-08-05T01:36:21.031Z,20.50
2022-08-05T01:38:56.599Z,20.40
2022-08-05T01:41:31.119Z,20.40
2022-08-05T01:44:01.030Z,20.40
2022-08-05T01:46:46.270Z,20.30
2022-08-05T01:49:42.741Z,20.30
2022-08-05T01:52:23.513Z,20.30
2022-08-05T01:54:56.021Z,20.20
2022-08-05T01:58:11.254Z,20.20
2022-08-05T02:00:20.204Z,20.20
2022-08-05T02:03:04.126Z,20.20
2022-08-05T02:05:35.967Z,20.10
2022-08-05T02:08:05.869Z,20.10
2022-08-05T02:10:40.684Z,20.10
2022-08-05T02:14:18.836Z,20.10
2022-08-05T02:16:53.256Z,20.10
2022-08-05T02:19:28.941Z,20.10
2022-08-05T02:22:26.520Z,20.10
2022-08-05T02:25:05.249Z,20.10
2022-08-05T02:27:57.858Z,20.10
2022-08-05T02:30:28.006Z,20.00
2022-08-05T02:32:59.230Z,20.00
2022-08-05T02:35:33.220Z,20.10
2022-08-05T02:38:05.388Z,20.10
2022-08-05T02:40:41.132Z,20.00
2022-08-05T02:43:10.962Z,20.10
2022-08-05T02:45:52.007Z,20.00
2022-08-05T02:48:28.964Z,20.00
2022-08-05T02:51:02.687Z,20.00
2022-08-05T02:53:39.358Z,20.00
2022-08-05T02:56:15.716Z,20.00
2022-08-05T02:58:45.152Z,19.90
2022-08-05T03:01:20.541Z,19.90
2022-08-05T03:04:03.013Z,19.90
2022-08-05T03:06:53.881Z,19.90
2022-08-05T03:09:36.220Z,19.90
2022-08-05T03:12:05.968Z,19.90
2022-08-05T03:14:35.304Z,19.90
2022-08-05T03:17:13.302Z,19.90
2022-08-05T03:19:41.853Z,19.90
2022-08-05T03:22:16.034Z,19.90
2022-08-05T03:24:57.178Z,19.90
2022-08-05T03:27:39.359Z,20.00
2022-08-05T03:30:28.672Z,19.90
2022-08-05T03:33:05.838Z,20.00
2022-08-05T03:35:33.690Z,19.90
2022-08-05T03:38:02.838Z,20.00
2022-08-05T03:40:32.306Z,20.00
2022-08-05T03:43:15.719Z,20.00
2022-08-05T03:45:55.284Z,20.00
2022-08-05T03:48:28.237Z,20.00
2022-08-05T03:51:06.912Z,20.00
2022-08-05T03:55:50.587Z,20.10
2022-08-05T03:56:50.770Z,20.10
2022-08-05T03:59:46.776Z,20.20
2022-08-05T04:02:38.594Z,20.50
2022-08-05T04:05:10.271Z,21.00
2022-08-05T04:07:53.073Z,21.70
2022-08-05T04:10:27.756Z,22.20
2022-08-05T04:12:59.001Z,22.70
2022-08-05T04:15:27.999Z,23.10
2022-08-05T04:18:06.772Z,23.40
2022-08-05T04:20:34.890Z,23.60
2022-08-05T04:23:02.007Z,23.90
2022-08-05T04:25:57.371Z,23.90
2022-08-05T04:28:20.298Z,23.90
2022-08-05T04:30:57.908Z,24.00
2022-08-05T04:34:17.041Z,24.30
2022-08-05T04:36:44.747Z,24.20
2022-08-05T04:39:07.005Z,24.20
2022-08-05T04:41:36.842Z,24.50
2022-08-05T04:44:09.642Z,24.70
2022-08-05T04:46:38.576Z,24.80
2022-08-05T04:49:14.554Z,24.80
2022-08-05T04:52:00.304Z,24.70
2022-08-05T04:54:27.693Z,24.80
2022-08-05T04:56:58.947Z,25.00
2022-08-05T04:59:40.506Z,25.20
2022-08-05T05:02:37.738Z,25.30
2022-08-05T05:05:01.620Z,25.40
2022-08-05T05:07:32.224Z,25.60
2022-08-05T05:10:02.131Z,25.70
2022-08-05T05:12:29.470Z,25.40
2022-08-05T05:14:57.934Z,25.20
2022-08-05T05:17:57.193Z,24.90
2022-08-05T05:20:13.201Z,24.70
2022-08-05T05:22:41.141Z,24.30
2022-08-05T05:28:01.842Z,23.90
2022-08-05T05:30:30.659Z,23.80
2022-08-05T05:33:03.905Z,23.70
2022-08-05T05:35:47.703Z,23.50
2022-08-05T05:38:22.671Z,23.30
2022-08-05T05:40:56.029Z,23.30
2022-08-05T05:43:54.047Z,23.10
2022-08-05T05:46:17.665Z,23.10
2022-08-05T05:48:48.385Z,23.10
2022-08-05T05:51:20.567Z,23.00
2022-08-05T05:53:58.123Z,23.00
2022-08-05T05:56:33.306Z,23.00
2022-08-05T05:59:06.684Z,23.00
2022-08-05T06:01:40.306Z,23.00
2022-08-05T06:04:13.115Z,22.90
2022-08-05T06:06:43.066Z,23.00
2022-08-05T06:09:17.655Z,23.00
2022-08-05T06:11:59.142Z,23.00
2022-08-05T06:14:28.097Z,23.00
2022-08-05T06:16:57.081Z,23.00
2022-08-05T06:19:34.100Z,23.00
2022-08-05T06:22:06.625Z,23.10
2022-08-05T06:24:34.912Z,23.20
2022-08-05T06:27:04.162Z,23.10
2022-08-05T06:29:46.359Z,23.20
2022-08-05T06:32:24.921Z,23.20
2022-08-05T06:34:58.734Z,23.30
2022-08-05T06:37:55.881Z,23.40
2022-08-05T06:40:21.040Z,23.50
2022-08-05T06:42:52.168Z,23.50
2022-08-05T06:45:44.112Z,23.60
2022-08-05T06:48:36.959Z,23.60
2022-08-05T06:50:54.926Z,23.70
2022-08-05T06:53:28.475Z,23.70
2022-08-05T06:56:00.732Z,23.80
2022-08-05T06:58:35.237Z,23.90
2022-08-05T07:01:07.264Z,24.00
2022-08-05T07:03:34.683Z,24.00
2022-08-05T07:06:05.946Z,24.10
2022-08-05T07:08:54.699Z,24.20
2022-08-05T07:11:25.259Z,24.30
2022-08-05T07:14:20.162Z,24.40
2022-08-05T07:18:02.279Z,24.40
2022-08-05T07:22:29.012Z,24.60
2022-08-05T07:25:23.685Z,24.70
2022-08-05T07:27:57.336Z,24.70
2022-08-05T07:30:32.844Z,24.80
2022-08-05T07:33:05.078Z,25.00
2022-08-05T07:36:01.993Z,25.10
2022-08-05T07:38:32.942Z,25.20
2022-08-05T07:42:07.407Z,25.40
2022-08-05T07:43:55.063Z,25.70
2022-08-05T07:46:28.573Z,25.80
2022-08-05T07:49:03.979Z,26.00
2022-08-05T07:51:40.758Z,26.30
2022-08-05T07:54:23.321Z,26.60
2022-08-05T07:57:13.772Z,27.00
2022-08-05T07:59:41.480Z,27.30
2022-08-05T08:02:15.666Z,27.50
2022-08-05T08:04:45.593Z,27.80
2022-08-05T08:07:24.646Z,28.00
2022-08-05T08:09:55.583Z,28.20
2022-08-05T08:12:35.259Z,28.50
2022-08-05T08:15:09.660Z,28.70
2022-08-05T08:17:53.255Z,28.80
2022-08-05T08:20:43.507Z,29.00
2022-08-05T08:24:00.377Z,29.10
2022-08-05T08:26:00.928Z,29.30
2022-08-05T08:28:37.166Z,29.50
2022-08-05T08:31:23.455Z,29.60
2022-08-05T08:33:53.930Z,29.60
2022-08-05T08:36:38.582Z,29.70
2022-08-05T08:39:15.405Z,29.60
2022-08-05T08:41:52.086Z,29.70
2022-08-05T08:45:25.407Z,29.60
2022-08-05T08:48:06.433Z,29.50
2022-08-05T08:50:30.438Z,29.70
2022-08-05T08:53:12.448Z,29.70
2022-08-05T08:56:02.703Z,30.00
2022-08-05T08:58:43.174Z,30.00
2022-08-05T09:01:16.727Z,30.00
2022-08-05T09:03:58.271Z,29.90
2022-08-05T09:06:30.864Z,29.80
2022-08-05T09:09:02.281Z,29.80
2022-08-05T09:11:52.204Z,29.80
2022-08-05T09:14:56.693Z,29.60
2022-08-05T09:17:08.166Z,29.60
2022-08-05T09:19:55.105Z,29.60
2022-08-05T09:22:31.842Z,29.70
2022-08-05T09:25:13.845Z,29.60
2022-08-05T09:28:03.848Z,29.50
2022-08-05T09:30:34.743Z,29.50
2022-08-05T09:33:04.628Z,29.50
2022-08-05T09:35:32.710Z,29.50
2022-08-05T09:38:12.357Z,29.50
2022-08-05T09:40:53.564Z,29.50
2022-08-05T09:43:41.800Z,29.70
2022-08-05T09:46:31.255Z,29.70
2022-08-05T09:49:08.158Z,29.60
2022-08-05T09:51:50.060Z,29.60
2022-08-05T09:54:28.851Z,29.50
2022-08-05T09:56:56.187Z,29.10
2022-08-05T09:59:27.744Z,28.90
2022-08-05T10:01:57.689Z,28.60
2022-08-05T10:04:38.649Z,28.40
2022-08-05T10:07:19.499Z,28.60
2022-08-05T10:10:04.165Z,28.60
2022-08-05T10:12:54.015Z,28.80
2022-08-05T10:15:24.018Z,28.90
2022-08-05T10:18:22.732Z,28.90
2022-08-05T10:20:56.931Z,29.00
2022-08-05T10:23:55.706Z,29.10
2022-08-05T10:26:24.442Z,29.20
2022-08-05T10:28:59.997Z,29.10
2022-08-05T10:32:52.206Z,29.10
2022-08-05T10:34:14.501Z,29.10
2022-08-05T10:36:44.646Z,29.10
2022-08-05T10:39:24.932Z,29.10
2022-08-05T10:42:22.783Z,29.00
2022-08-05T10:45:02.013Z,29.10
2022-08-05T10:48:29.147Z,29.10
2022-08-05T10:51:00.651Z,29.00
2022-08-05T10:53:55.184Z,29.00
2022-08-05T10:56:26.084Z,29.00
2022-08-05T10:58:56.446Z,29.00
2022-08-05T11:02:03.833Z,28.90
2022-08-05T11:04:28.308Z,28.80
2022-08-05T11:07:01.446Z,28.80
2022-08-05T11:09:45.376Z,28.70
2022-08-05T11:12:41.156Z,28.60
2022-08-05T11:15:19.961Z,28.60
2022-08-05T11:17:59.417Z,28.50
2022-08-05T11:20:41.580Z,28.50
2022-08-05T11:24:02.294Z,28.50
2022-08-05T11:26:29.110Z,28.50
2022-08-05T11:29:12.291Z,28.50
2022-08-05T11:31:58.204Z,28.50
2022-08-05T11:34:47.197Z,28.50
2022-08-05T11:38:29.336Z,28.30
2022-08-05T11:41:01.067Z,28.40
2022-08-05T11:44:00.960Z,28.50
2022-08-05T11:46:33.474Z,28.50
2022-08-05T11:49:05.727Z,28.60
2022-08-05T11:51:44.845Z,28.40
2022-08-05T11:54:33.554Z,28.30
2022-08-05T11:57:08.270Z,28.20
2022-08-05T11:59:51.125Z,28.20
2022-08-05T12:02:32.931Z,28.10
2022-08-05T12:05:07.600Z,28.00
2022-08-05T12:08:08.779Z,27.90
2022-08-05T12:10:38.375Z,28.00
2022-08-05T12:13:15.602Z,28.00
2022-08-05T12:15:45.468Z,27.80
2022-08-05T12:18:38.658Z,27.70
2022-08-05T12:21:39.712Z,27.70
2022-08-05T12:24:09.066Z,27.60
2022-08-05T12:26:39.781Z,27.40
2022-08-05T12:29:17.887Z,27.30
2022-08-05T12:31:54.313Z,27.30
2022-08-05T12:34:33.416Z,27.20
2022-08-05T12:37:21.416Z,27.10
2022-08-05T12:39:51.799Z,27.00
2022-08-05T12:42:21.315Z,26.80
2022-08-05T12:45:01.203Z,26.80
2022-08-05T12:47:31.551Z,26.90
2022-08-05T12:50:04.037Z,26.90
2022-08-05T12:52:38.592Z,27.00
2022-08-05T12:55:25.388Z,27.00
2022-08-05T12:58:50.015Z,27.00
2022-08-05T13:02:01.664Z,27.00
2022-08-05T13:03:42.302Z,26.80
2022-08-05T13:06:20.015Z,26.70
2022-08-05T13:08:51.462Z,26.70
2022-08-05T13:11:56.876Z,26.50
2022-08-05T13:14:20.228Z,26.40
2022-08-05T13:16:56.931Z,26.30
2022-08-05T13:19:26.384Z,26.30
2022-08-05T13:21:56.770Z,26.40
2022-08-05T13:24:27.519Z,26.40
2022-08-05T13:27:17.184Z,26.40
2022-08-05T13:30:31.497Z,26.40
2022-08-05T13:32:48.825Z,26.50
2022-08-05T13:35:22.185Z,26.40
2022-08-05T13:37:55.936Z,26.40
2022-08-05T13:40:36.903Z,26.30
2022-08-05T13:43:12.091Z,26.40
2022-08-05T13:45:43.221Z,26.30
2022-08-05T13:48:57.498Z,26.30
2022-08-05T13:51:13.784Z,26.20
2022-08-05T13:54:00.980Z,26.20
2022-08-05T13:56:29.853Z,26.30
2022-08-05T13:58:58.443Z,26.40
2022-08-05T14:01:44.172Z,26.30
2022-08-05T14:04:32.541Z,26.30
2022-08-05T14:07:25.196Z,26.30
2022-08-05T14:09:47.515Z,26.30
2022-08-05T14:12:18.005Z,26.10
2022-08-05T14:14:59.560Z,25.80
2022-08-05T14:17:29.884Z,25.50
2022-08-05T14:19:59.744Z,25.40
2022-08-05T14:22:34.536Z,25.20
2022-08-05T14:25:06.103Z,25.10
2022-08-05T14:27:47.265Z,25.20
2022-08-05T14:30:20.313Z,25.20
2022-08-05T14:32:47.924Z,25.30
2022-08-05T14:35:15.058Z,25.40
2022-08-05T14:37:45.394Z,25.60
2022-08-05T14:40:16.788Z,25.70
2022-08-05T14:42:44.578Z,25.80
2022-08-05T14:45:12.494Z,25.90
2022-08-05T14:48:03.603Z,25.80
2022-08-05T14:50:27.177Z,25.90
2022-08-05T14:52:57.728Z,25.90
2022-08-05T14:55:38.571Z,26.00
2022-08-05T14:58:11.870Z,25.90
2022-08-05T15:00:58.321Z,26.00
2022-08-05T15:03:33.257Z,26.10
2022-08-05T15:06:07.643Z,26.10
2022-08-05T15:08:58.370Z,26.10
2022-08-05T15:11:52.767Z,26.10
2022-08-05T15:14:34.320Z,26.10
2022-08-05T15:17:05.061Z,26.20
2022-08-05T15:19:37.054Z,26.20
2022-08-05T15:22:06.072Z,26.20
2022-08-05T15:24:33.088Z,26.30
2022-08-05T15:27:00.115Z,26.30
2022-08-05T15:29:29.752Z,26.30
2022-08-05T15:32:03.105Z,26.30
2022-08-05T15:34:33.618Z,26.30
2022-08-05T15:37:06.196Z,26.30
2022-08-05T15:40:41.498Z,26.40
2022-08-05T15:42:50.362Z,26.40
2022-08-05T15:45:11.495Z,26.40
2022-08-05T15:47:39.390Z,26.50
2022-08-05T15:50:08.235Z,26.50
2022-08-05T15:52:53.714Z,26.50
2022-08-05T15:55:24.586Z,26.50
2022-08-05T15:57:52.719Z,26.50
2022-08-05T16:00:29.288Z,26.50
2022-08-05T16:03:08.053Z,26.60
2022-08-05T16:05:35.135Z,26.60
2022-08-05T16:08:06.063Z,26.70
2022-08-05T16:10:33.046Z,26.70
2022-08-05T16:13:00.014Z,26.70
2022-08-05T16:15:32.430Z,26.70
2022-08-05T16:18:00.806Z,26.60
2022-08-05T16:20:31.433Z,26.50
2022-08-05T16:22:59.456Z,26.40
2022-08-05T16:25:32.439Z,26.30
2022-08-05T16:28:06.486Z,26.10
2022-08-05T16:30:36.980Z,26.00
2022-08-05T16:33:04.130Z,25.90
2022-08-05T16:35:33.505Z,25.80
2022-08-05T16:38:18.377Z,25.80
2022-08-05T16:40:55.661Z,25.70
2022-08-05T16:43:30.495Z,25.60
2022-08-05T16:46:03.478Z,25.50
2022-08-05T16:48:38.286Z,25.50
2022-08-05T16:51:09.997Z,25.60
2022-08-05T16:54:05.614Z,25.60
2022-08-05T16:56:33.793Z,25.60
2022-08-05T16:59:08.018Z,25.60
2022-08-05T17:01:54.151Z,25.70
2022-08-05T17:04:28.196Z,25.70
2022-08-05T17:07:03.292Z,25.70
2022-08-05T17:09:57.251Z,25.80
2022-08-05T17:12:51.277Z,25.80
2022-08-05T17:15:15.589Z,25.80
2022-08-05T17:18:02.346Z,25.90
2022-08-05T17:20:31.564Z,25.90
2022-08-05T17:22:58.706Z,25.80
2022-08-05T17:25:39.588Z,25.80
2022-08-05T17:28:07.779Z,25.80
2022-08-05T17:30:42.746Z,25.70
2022-08-05T17:33:20.850Z,25.70
2022-08-05T17:36:07.327Z,25.60
2022-08-05T17:38:35.019Z,25.60
2022-08-05T17:41:02.115Z,25.50
2022-08-05T17:43:46.688Z,25.50
2022-08-05T17:46:18.596Z,25.50
2022-08-05T17:48:47.710Z,25.50
2022-08-05T17:51:21.829Z,25.50
2022-08-05T17:53:54.648Z,25.50
2022-08-05T17:56:22.715Z,25.50
2022-08-05T17:58:51.227Z,25.50
2022-08-05T18:01:19.680Z,25.50
2022-08-05T18:03:56.374Z,25.50
2022-08-05T18:06:30.869Z,25.50
2022-08-05T18:08:58.369Z,25.40
2022-08-05T18:11:33.115Z,25.40
2022-08-05T18:14:07.462Z,25.30
2022-08-05T18:16:46.974Z,25.30
2022-08-05T18:19:22.668Z,25.30
2022-08-05T18:22:09.498Z,25.20
2022-08-05T18:24:39.642Z,25.10
2022-08-05T18:27:12.905Z,25.00
2022-08-05T18:29:51.925Z,24.90
2022-08-05T18:32:21.186Z,24.90
2022-08-05T18:34:55.692Z,24.80
2022-08-05T18:37:34.427Z,24.80
2022-08-05T18:41:50.932Z,24.80
2022-08-05T18:42:58.062Z,24.80
2022-08-05T18:45:41.426Z,24.70
2022-08-05T18:48:11.068Z,24.70
2022-08-05T18:50:57.458Z,24.60
2022-08-05T18:53:45.802Z,24.60
2022-08-05T18:56:21.764Z,24.50
2022-08-05T18:58:52.882Z,24.40
2022-08-05T19:01:33.335Z,24.40
2022-08-05T19:04:14.945Z,24.40
2022-08-05T19:06:53.516Z,24.30
2022-08-05T19:09:23.840Z,24.30
2022-08-05T19:12:00.924Z,24.20
2022-08-05T19:14:37.797Z,24.10
2022-08-05T19:17:18.446Z,24.10
2022-08-05T19:19:48.651Z,24.00
2022-08-05T19:22:17.203Z,24.00
2022-08-05T19:24:56.136Z,23.90
2022-08-05T19:27:27.758Z,23.90
2022-08-05T19:29:57.836Z,23.90
2022-08-05T19:32:26.094Z,23.80
2022-08-05T19:34:55.916Z,23.70
2022-08-05T19:37:34.996Z,23.70
2022-08-05T19:40:12.769Z,23.70
2022-08-05T19:42:42.249Z,23.60
2022-08-05T19:45:28.242Z,23.50
2022-08-05T19:48:02.454Z,23.50
2022-08-05T19:50:31.878Z,23.50
2022-08-05T19:53:09.494Z,23.50
2022-08-05T19:56:15.521Z,23.50
2022-08-05T19:58:28.378Z,23.50
2022-08-05T20:00:57.790Z,23.40
2022-08-05T20:03:26.093Z,23.40
2022-08-05T20:05:56.699Z,23.40
2022-08-05T20:08:25.054Z,23.30
2022-08-05T20:10:56.584Z,23.30
2022-08-05T20:13:30.048Z,23.30
2022-08-05T20:16:13.944Z,23.30
2022-08-05T20:19:00.889Z,23.30
2022-08-05T20:21:28.951Z,23.30
2022-08-05T20:23:58.703Z,23.30
2022-08-05T20:26:26.156Z,23.20
2022-08-05T20:28:56.261Z,23.20
2022-08-05T20:31:28.776Z,23.20
2022-08-05T20:34:04.883Z,23.30
2022-08-05T20:36:31.867Z,23.30
2022-08-05T20:38:59.826Z,23.30
2022-08-05T20:41:43.409Z,23.40
2022-08-05T20:44:19.191Z,23.40
2022-08-05T20:47:02.080Z,23.30
2022-08-05T20:49:33.204Z,23.40
2022-08-05T20:52:07.498Z,23.40
2022-08-05T20:54:43.631Z,23.50
2022-08-05T20:57:42.292Z,23.50
2022-08-05T21:03:48.045Z,23.60
2022-08-05T21:06:28.733Z,23.60
2022-08-05T21:08:56.652Z,23.70
2022-08-05T21:12:07.464Z,23.70
2022-08-05T21:14:13.624Z,23.70
2022-08-05T21:16:41.435Z,23.70
2022-08-05T21:19:08.507Z,23.70
2022-08-05T21:21:39.352Z,23.70
2022-08-05T21:24:12.920Z,23.70
2022-08-05T21:26:41.354Z,23.70
2022-08-05T21:29:10.049Z,23.70
2022-08-05T21:31:41.659Z,23.70
2022-08-05T21:34:11.446Z,23.70
2022-08-05T21:36:39.306Z,23.70
2022-08-05T21:39:10.284Z,23.50
2022-08-05T21:41:42.019Z,23.40
2022-08-05T21:44:27.053Z,23.30
2022-08-05T21:46:55.627Z,23.20
2022-08-05T21:49:58.813Z,23.20
2022-08-05T21:52:22.711Z,23.10
2022-08-05T21:54:56.113Z,23.10
2022-08-05T21:57:32.098Z,23.00
2022-08-05T22:00:11.136Z,23.00
2022-08-05T22:02:38.645Z,22.90
2022-08-05T22:05:06.216Z,22.80
2022-08-05T22:07:40.101Z,22.70
2022-08-05T22:10:25.483Z,22.70
2022-08-05T22:12:59.051Z,22.50
2022-08-05T22:16:00.780Z,22.40
2022-08-05T22:18:14.550Z,22.20
2022-08-05T22:21:04.260Z,22.10
2022-08-05T22:24:01.795Z,22.00
2022-08-05T22:26:49.772Z,22.00
2022-08-05T22:29:26.164Z,21.90
2022-08-05T22:31:55.246Z,21.80
2022-08-05T22:34:28.665Z,21.80
2022-08-05T22:36:59.660Z,21.70
2022-08-05T22:39:32.916Z,21.70
2022-08-05T22:42:10.948Z,21.70
2022-08-05T22:44:47.019Z,21.60
2022-08-05T22:47:29.347Z,21.60
2022-08-05T22:50:19.118Z,21.60
2022-08-05T22:52:47.596Z,21.60
2022-08-05T22:55:18.610Z,21.60
2022-08-05T22:57:47.104Z,21.60
2022-08-05T23:02:48.325Z,21.60
2022-08-05T23:05:26.359Z,21.60
2022-08-05T23:07:53.934Z,21.60
2022-08-05T23:10:23.970Z,21.50
2022-08-05T23:12:55.237Z,21.50
2022-08-05T23:15:26.982Z,21.40
2022-08-05T23:18:00.710Z,21.40
2022-08-05T23:20:28.982Z,21.50
2022-08-05T23:22:56.535Z,21.50
2022-08-05T23:25:52.670Z,21.40
2022-08-05T23:28:13.229Z,21.40
2022-08-05T23:31:16.354Z,21.50
2022-08-05T23:34:05.658Z,21.40
2022-08-05T23:36:39.951Z,21.40
2022-08-05T23:39:17.303Z,21.30
2022-08-05T23:41:50.787Z,21.20
2022-08-05T23:44:19.675Z,21.20
2022-08-05T23:46:49.643Z,21.20
2022-08-05T23:49:22.326Z,21.20
2022-08-05T23:52:11.449Z,21.20
2022-08-05T23:54:38.880Z,21.10
2022-08-05T23:57:06.901Z,21.10
